createdAt,value
2023-07-09T00:00:39.563Z,24.79
2023-07-09T00:01:39.745Z,24.79
2023-07-09T00:02:39.761Z,24.79
2023-07-09T00:03:39.764Z,24.79
2023-07-09T00:04:39.826Z,24.78
2023-07-09T00:05:39.895Z,24.78
2023-07-09T00:06:39.949Z,24.78
2023-07-09T00:07:40.029Z,24.78
2023-07-09T00:08:40.025Z,24.78
2023-07-09T00:09:40.112Z,24.78
2023-07-09T00:10:40.216Z,24.78
2023-07-09T00:11:40.182Z,24.78
2023-07-09T00:12:40.265Z,24.77
2023-07-09T00:13:40.327Z,24.77
2023-07-09T00:14:40.380Z,24.77
2023-07-09T00:15:40.415Z,24.77
2023-07-09T00:16:40.578Z,24.76
2023-07-09T00:17:40.541Z,24.77
2023-07-09T00:18:40.561Z,24.77
2023-07-09T00:19:40.631Z,24.76
2023-07-09T00:20:40.683Z,24.77
2023-07-09T00:21:40.762Z,24.76
2023-07-09T00:22:40.793Z,24.76
2023-07-09T00:23:40.855Z,24.75
2023-07-09T00:24:40.884Z,24.76
2023-07-09T00:25:40.936Z,24.75
2023-07-09T00:26:41.069Z,24.75
2023-07-09T00:27:41.048Z,24.75
2023-07-09T00:28:41.092Z,24.75
2023-07-09T00:29:41.153Z,24.75
2023-07-09T00:30:41.212Z,24.74
2023-07-09T00:31:41.326Z,24.74
2023-07-09T00:32:41.321Z,24.74
2023-07-09T00:33:41.364Z,24.74
2023-07-09T00:34:41.393Z,24.74
2023-07-09T00:35:41.524Z,24.74
2023-07-09T00:36:41.522Z,24.74
2023-07-09T00:37:41.556Z,24.73
2023-07-09T00:38:41.607Z,24.73
2023-07-09T00:39:41.676Z,24.73
2023-07-09T00:40:41.716Z,24.73
2023-07-09T00:41:41.783Z,24.73
2023-07-09T00:42:41.840Z,24.73
2023-07-09T00:43:41.882Z,24.73
2023-07-09T00:44:41.912Z,24.73
2023-07-09T00:45:41.947Z,24.72
2023-07-09T00:46:42.127Z,24.73
2023-07-09T00:47:42.092Z,24.73
2023-07-09T00:48:42.106Z,24.72
2023-07-09T00:49:42.128Z,24.72
2023-07-09T00:50:42.221Z,24.72
2023-07-09T00:51:42.331Z,24.72
2023-07-09T00:52:42.271Z,24.72
2023-07-09T00:53:42.363Z,24.72
2023-07-09T00:54:42.384Z,24.72
2023-07-09T00:55:42.394Z,24.72
2023-07-09T00:56:42.443Z,24.71
2023-07-09T00:57:42.495Z,24.71
2023-07-09T00:58:42.552Z,24.72
2023-07-09T00:59:42.556Z,24.71
2023-07-09T01:00:42.611Z,24.70
2023-07-09T01:01:42.678Z,24.70
2023-07-09T01:02:42.772Z,24.71
2023-07-09T01:03:42.801Z,24.71
2023-07-09T01:04:42.853Z,24.70
2023-07-09T01:05:42.931Z,24.71
2023-07-09T01:06:42.900Z,24.71
2023-07-09T01:07:42.964Z,24.70
2023-07-09T01:08:43.000Z,24.70
2023-07-09T01:09:43.024Z,24.71
2023-07-09T01:10:44.003Z,24.70
2023-07-09T01:11:43.092Z,24.70
2023-07-09T01:12:43.130Z,24.70
2023-07-09T01:13:43.161Z,24.70
2023-07-09T01:14:43.211Z,24.70
2023-07-09T01:15:43.214Z,24.70
2023-07-09T01:16:43.221Z,24.70
2023-07-09T01:17:43.277Z,24.69
2023-07-09T01:18:43.275Z,24.69
2023-07-09T01:19:43.312Z,24.69
2023-07-09T01:20:43.328Z,24.69
2023-07-09T01:21:43.351Z,24.69
2023-07-09T01:22:43.361Z,24.69
2023-07-09T01:23:43.406Z,24.69
2023-07-09T01:24:43.446Z,24.69
2023-07-09T01:25:43.460Z,24.69
2023-07-09T01:26:43.460Z,24.69
2023-07-09T01:27:43.525Z,24.69
2023-07-09T01:28:43.561Z,24.68
2023-07-09T01:29:45.920Z,24.67
2023-07-09T01:30:43.770Z,24.68
2023-07-09T01:31:43.847Z,24.67
2023-07-09T01:32:43.823Z,24.67
2023-07-09T01:33:43.763Z,24.67
2023-07-09T01:34:43.775Z,24.67
2023-07-09T01:35:43.821Z,24.67
2023-07-09T01:36:43.793Z,24.67
2023-07-09T01:37:43.778Z,24.67
2023-07-09T01:38:43.784Z,24.67
2023-07-09T01:39:43.789Z,24.67
2023-07-09T01:40:43.757Z,24.67
2023-07-09T01:41:43.780Z,24.67
2023-07-09T01:42:43.784Z,24.67
2023-07-09T01:43:43.834Z,24.67
2023-07-09T01:44:43.842Z,24.67
2023-07-09T01:45:43.878Z,24.66
2023-07-09T01:46:45.197Z,24.66
2023-07-09T01:47:43.997Z,24.66
2023-07-09T01:48:43.952Z,24.67
2023-07-09T01:49:43.974Z,24.66
2023-07-09T01:50:43.966Z,24.66
2023-07-09T01:51:43.972Z,24.66
2023-07-09T01:52:43.991Z,24.66
2023-07-09T01:53:43.994Z,24.66
2023-07-09T01:54:44.017Z,24.65
2023-07-09T01:55:43.998Z,24.65
2023-07-09T01:56:44.348Z,24.65
2023-07-09T01:57:44.418Z,24.64
2023-07-09T01:58:44.148Z,24.65
2023-07-09T01:59:44.191Z,24.65
2023-07-09T02:00:44.258Z,24.64
2023-07-09T02:01:44.304Z,24.65
2023-07-09T02:02:44.403Z,24.64
2023-07-09T02:03:44.409Z,24.63
2023-07-09T02:04:44.463Z,24.63
2023-07-09T02:05:44.449Z,24.64
2023-07-09T02:06:44.518Z,24.63
2023-07-09T02:07:44.515Z,24.63
2023-07-09T02:08:44.520Z,24.63
2023-07-09T02:09:44.554Z,24.63
2023-07-09T02:10:44.504Z,24.63
2023-07-09T02:11:44.517Z,24.62
2023-07-09T02:12:44.490Z,24.63
2023-07-09T02:13:44.577Z,24.62
2023-07-09T02:14:44.485Z,24.62
2023-07-09T02:15:44.583Z,24.62
2023-07-09T02:16:44.689Z,24.62
2023-07-09T02:17:44.532Z,24.62
2023-07-09T02:18:44.523Z,24.62
2023-07-09T02:19:44.508Z,24.61
2023-07-09T02:20:44.515Z,24.61
2023-07-09T02:21:44.532Z,24.62
2023-07-09T02:22:44.515Z,24.61
2023-07-09T02:23:44.526Z,24.62
2023-07-09T02:24:44.474Z,24.61
2023-07-09T02:25:44.489Z,24.61
2023-07-09T02:26:44.569Z,24.60
2023-07-09T02:27:44.485Z,24.60
2023-07-09T02:28:44.498Z,24.60
2023-07-09T02:29:44.457Z,24.60
2023-07-09T02:30:44.493Z,24.60
2023-07-09T02:31:44.469Z,24.60
2023-07-09T02:32:44.498Z,24.60
2023-07-09T02:33:44.446Z,24.60
2023-07-09T02:34:44.443Z,24.60
2023-07-09T02:35:44.447Z,24.60
2023-07-09T02:36:44.469Z,24.59
2023-07-09T02:37:44.454Z,24.59
2023-07-09T02:38:44.447Z,24.59
2023-07-09T02:39:44.434Z,24.59
2023-07-09T02:40:44.423Z,24.59
2023-07-09T02:41:44.430Z,24.58
2023-07-09T02:42:44.424Z,24.58
2023-07-09T02:43:44.395Z,24.58
2023-07-09T02:44:44.442Z,24.58
2023-07-09T02:45:44.406Z,24.58
2023-07-09T02:46:44.416Z,24.57
2023-07-09T02:47:44.500Z,24.58
2023-07-09T02:48:44.401Z,24.56
2023-07-09T02:49:44.370Z,24.56
2023-07-09T02:50:44.394Z,24.56
2023-07-09T02:51:44.391Z,24.56
2023-07-09T02:52:44.387Z,24.55
2023-07-09T02:53:44.360Z,24.55
2023-07-09T02:54:44.380Z,24.55
2023-07-09T02:55:44.362Z,24.55
2023-07-09T02:56:44.376Z,24.55
2023-07-09T02:57:44.383Z,24.56
2023-07-09T02:58:44.350Z,24.55
2023-07-09T02:59:44.374Z,24.54
2023-07-09T03:00:44.356Z,24.54
2023-07-09T03:01:44.401Z,24.54
2023-07-09T03:02:44.362Z,24.55
2023-07-09T03:03:44.418Z,24.54
2023-07-09T03:04:44.339Z,24.55
2023-07-09T03:05:44.364Z,24.54
2023-07-09T03:06:44.349Z,24.53
2023-07-09T03:07:44.337Z,24.54
2023-07-09T03:08:44.333Z,24.53
2023-07-09T03:09:44.351Z,24.53
2023-07-09T03:10:44.317Z,24.53
2023-07-09T03:11:44.312Z,24.53
2023-07-09T03:12:44.284Z,24.53
2023-07-09T03:13:44.365Z,24.53
2023-07-09T03:14:44.291Z,24.53
2023-07-09T03:15:44.302Z,24.53
2023-07-09T03:16:44.344Z,24.53
2023-07-09T03:17:44.315Z,24.52
2023-07-09T03:18:44.258Z,24.53
2023-07-09T03:19:44.306Z,24.52
2023-07-09T03:20:44.296Z,24.52
2023-07-09T03:21:44.290Z,24.52
2023-07-09T03:22:44.253Z,24.51
2023-07-09T03:23:44.242Z,24.52
2023-07-09T03:24:44.274Z,24.51
2023-07-09T03:25:44.268Z,24.52
2023-07-09T03:26:44.271Z,24.51
2023-07-09T03:27:44.248Z,24.50
2023-07-09T03:28:44.264Z,24.50
2023-07-09T03:29:44.294Z,24.50
2023-07-09T03:30:44.269Z,24.50
2023-07-09T03:31:44.470Z,24.50
2023-07-09T03:32:44.366Z,24.49
2023-07-09T03:33:44.293Z,24.50
2023-07-09T03:34:44.287Z,24.49
2023-07-09T03:35:44.269Z,24.50
2023-07-09T03:36:44.266Z,24.49
2023-07-09T03:37:44.267Z,24.49
2023-07-09T03:38:44.263Z,24.49
2023-07-09T03:39:44.303Z,24.49
2023-07-09T03:40:44.288Z,24.48
2023-07-09T03:41:44.271Z,24.49
2023-07-09T03:42:44.269Z,24.48
2023-07-09T03:43:44.317Z,24.48
2023-07-09T03:44:44.296Z,24.48
2023-07-09T03:45:44.309Z,24.47
2023-07-09T03:46:44.314Z,24.48
2023-07-09T03:47:44.368Z,24.47
2023-07-09T03:48:44.405Z,24.48
2023-07-09T03:49:44.301Z,24.47
2023-07-09T03:50:44.281Z,24.47
2023-07-09T03:51:44.277Z,24.47
2023-07-09T03:52:44.310Z,24.46
2023-07-09T03:53:44.312Z,24.47
2023-07-09T03:54:44.300Z,24.46
2023-07-09T03:55:44.329Z,24.46
2023-07-09T03:56:44.309Z,24.46
2023-07-09T03:57:44.306Z,24.46
2023-07-09T03:58:44.301Z,24.46
2023-07-09T03:59:44.305Z,24.45
2023-07-09T04:00:44.303Z,24.45
2023-07-09T04:01:44.312Z,24.46
2023-07-09T04:02:44.350Z,24.46
2023-07-09T04:03:44.411Z,24.45
2023-07-09T04:04:44.338Z,24.45
2023-07-09T04:05:44.353Z,24.44
2023-07-09T04:06:44.342Z,24.44
2023-07-09T04:07:44.343Z,24.44
2023-07-09T04:08:44.361Z,24.44
2023-07-09T04:09:44.350Z,24.44
2023-07-09T04:10:44.360Z,24.44
2023-07-09T04:11:44.368Z,24.43
2023-07-09T04:12:44.385Z,24.44
2023-07-09T04:13:44.406Z,24.43
2023-07-09T04:14:44.403Z,24.43
2023-07-09T04:15:44.394Z,24.43
2023-07-09T04:16:44.473Z,24.43
2023-07-09T04:17:44.482Z,24.43
2023-07-09T04:18:44.387Z,24.42
2023-07-09T04:19:44.410Z,24.43
2023-07-09T04:20:44.374Z,24.43
2023-07-09T04:21:44.359Z,24.42
2023-07-09T04:22:44.356Z,24.42
2023-07-09T04:23:44.855Z,24.43
2023-07-09T04:24:44.381Z,24.43
2023-07-09T04:25:44.371Z,24.42
2023-07-09T04:26:44.394Z,24.42
2023-07-09T04:27:44.400Z,24.43
2023-07-09T04:28:44.404Z,24.42
2023-07-09T04:29:44.434Z,24.43
2023-07-09T04:30:44.408Z,24.43
2023-07-09T04:31:44.493Z,24.42
2023-07-09T04:32:44.661Z,24.42
2023-07-09T04:33:44.479Z,24.43
2023-07-09T04:34:44.506Z,24.42
2023-07-09T04:35:44.450Z,24.42
2023-07-09T04:36:44.497Z,24.42
2023-07-09T04:37:44.492Z,24.42
2023-07-09T04:38:44.501Z,24.42
2023-07-09T04:39:44.505Z,24.43
2023-07-09T04:40:44.519Z,24.42
2023-07-09T04:41:44.474Z,24.42
2023-07-09T04:42:44.506Z,24.42
2023-07-09T04:43:44.491Z,24.42
2023-07-09T04:44:44.513Z,24.42
2023-07-09T04:45:44.541Z,24.43
2023-07-09T04:46:44.570Z,24.43
2023-07-09T04:47:44.505Z,24.42
2023-07-09T04:48:44.513Z,24.42
2023-07-09T04:49:44.522Z,24.42
2023-07-09T04:50:44.507Z,24.42
2023-07-09T04:51:44.513Z,24.42
2023-07-09T04:52:44.498Z,24.42
2023-07-09T04:53:44.531Z,24.43
2023-07-09T04:54:44.559Z,24.42
2023-07-09T04:55:44.560Z,24.42
2023-07-09T04:56:44.572Z,24.42
2023-07-09T04:57:44.565Z,24.41
2023-07-09T04:58:44.582Z,24.41
2023-07-09T04:59:44.578Z,24.42
2023-07-09T05:00:44.613Z,24.42
2023-07-09T05:01:44.760Z,24.41
2023-07-09T05:02:44.696Z,24.42
2023-07-09T05:03:44.651Z,24.42
2023-07-09T05:04:44.611Z,24.41
2023-07-09T05:05:44.637Z,24.41
2023-07-09T05:06:44.646Z,24.40
2023-07-09T05:07:44.669Z,24.40
2023-07-09T05:08:44.668Z,24.41
2023-07-09T05:09:44.657Z,24.41
2023-07-09T05:10:44.673Z,24.40
2023-07-09T05:11:44.652Z,24.41
2023-07-09T05:12:44.692Z,24.41
2023-07-09T05:13:44.698Z,24.41
2023-07-09T05:14:44.702Z,24.41
2023-07-09T05:15:44.780Z,24.41
2023-07-09T05:16:44.695Z,24.41
2023-07-09T05:17:44.713Z,24.41
2023-07-09T05:18:44.732Z,24.42
2023-07-09T05:19:44.732Z,24.40
2023-07-09T05:20:44.752Z,24.41
2023-07-09T05:21:44.749Z,24.41
2023-07-09T05:22:44.737Z,24.42
2023-07-09T05:23:44.738Z,24.41
2023-07-09T05:24:44.777Z,24.41
2023-07-09T05:25:44.793Z,24.40
2023-07-09T05:26:44.796Z,24.40
2023-07-09T05:27:44.776Z,24.40
2023-07-09T05:28:44.820Z,24.40
2023-07-09T05:29:44.833Z,24.39
2023-07-09T05:30:44.848Z,24.40
2023-07-09T05:31:44.903Z,24.41
2023-07-09T05:32:44.881Z,24.41
2023-07-09T05:33:44.856Z,24.40
2023-07-09T05:34:44.834Z,24.41
2023-07-09T05:35:44.879Z,24.40
2023-07-09T05:36:44.856Z,24.41
2023-07-09T05:37:44.863Z,24.42
2023-07-09T05:38:44.874Z,24.42
2023-07-09T05:39:44.899Z,24.42
2023-07-09T05:40:44.897Z,24.42
2023-07-09T05:41:44.882Z,24.43
2023-07-09T05:42:44.908Z,24.43
2023-07-09T05:43:44.906Z,24.43
2023-07-09T05:44:44.897Z,24.42
2023-07-09T05:45:44.917Z,24.43
2023-07-09T05:46:44.929Z,24.43
2023-07-09T05:47:44.987Z,24.43
2023-07-09T05:48:44.949Z,24.43
2023-07-09T05:49:44.927Z,24.43
2023-07-09T05:50:44.981Z,24.43
2023-07-09T05:51:44.976Z,24.43
2023-07-09T05:52:44.958Z,24.45
2023-07-09T05:53:44.991Z,24.44
2023-07-09T05:54:44.980Z,24.45
2023-07-09T05:55:44.978Z,24.44
2023-07-09T05:56:44.998Z,24.45
2023-07-09T05:57:44.983Z,24.44
2023-07-09T05:58:45.012Z,24.45
2023-07-09T05:59:44.992Z,24.46
2023-07-09T06:00:45.147Z,24.47
2023-07-09T06:01:45.018Z,24.46
2023-07-09T06:02:45.147Z,24.47
2023-07-09T06:03:45.098Z,24.47
2023-07-09T06:04:45.013Z,24.47
2023-07-09T06:05:45.014Z,24.47
2023-07-09T06:06:44.998Z,24.47
2023-07-09T06:07:45.050Z,24.47
2023-07-09T06:08:45.056Z,24.48
2023-07-09T06:09:45.074Z,24.47
2023-07-09T06:10:45.013Z,24.47
2023-07-09T06:11:45.058Z,24.48
2023-07-09T06:12:45.020Z,24.48
2023-07-09T06:13:45.017Z,24.49
2023-07-09T06:14:45.026Z,24.49
2023-07-09T06:15:44.985Z,24.49
2023-07-09T06:16:45.098Z,24.51
2023-07-09T06:17:45.032Z,24.50
2023-07-09T06:18:45.005Z,24.50
2023-07-09T06:19:44.980Z,24.51
2023-07-09T06:20:44.991Z,24.51
2023-07-09T06:21:44.997Z,24.51
2023-07-09T06:22:45.017Z,24.51
2023-07-09T06:23:44.987Z,24.52
2023-07-09T06:24:44.991Z,24.52
2023-07-09T06:25:44.988Z,24.52
2023-07-09T06:26:44.997Z,24.52
2023-07-09T06:27:44.987Z,24.52
2023-07-09T06:28:44.987Z,24.52
2023-07-09T06:29:45.021Z,24.53
2023-07-09T06:30:45.009Z,24.53
2023-07-09T06:31:44.987Z,24.53
2023-07-09T06:32:45.040Z,24.53
2023-07-09T06:33:44.966Z,24.54
2023-07-09T06:34:44.970Z,24.54
2023-07-09T06:35:45.009Z,24.55
2023-07-09T06:36:44.997Z,24.55
2023-07-09T06:37:45.020Z,24.55
2023-07-09T06:38:45.009Z,24.55
2023-07-09T06:39:44.989Z,24.55
2023-07-09T06:40:44.984Z,24.56
2023-07-09T06:41:44.986Z,24.56
2023-07-09T06:42:44.974Z,24.58
2023-07-09T06:43:44.989Z,24.57
2023-07-09T06:44:45.005Z,24.57
2023-07-09T06:45:44.985Z,24.58
2023-07-09T06:46:45.049Z,24.58
2023-07-09T06:47:44.993Z,24.59
2023-07-09T06:48:44.967Z,24.59
2023-07-09T06:49:44.980Z,24.60
2023-07-09T06:50:44.987Z,24.61
2023-07-09T06:51:44.957Z,24.62
2023-07-09T06:52:44.963Z,24.63
2023-07-09T06:53:45.008Z,24.63
2023-07-09T06:54:44.983Z,24.64
2023-07-09T06:55:44.964Z,24.64
2023-07-09T06:56:44.970Z,24.65
2023-07-09T06:57:45.023Z,24.66
2023-07-09T06:58:45.062Z,24.66
2023-07-09T06:59:45.049Z,24.67
2023-07-09T07:00:45.039Z,24.68
2023-07-09T07:01:45.147Z,24.69
2023-07-09T07:02:45.165Z,24.69
2023-07-09T07:03:45.180Z,24.70
2023-07-09T07:04:45.124Z,24.71
2023-07-09T07:05:45.135Z,24.72
2023-07-09T07:06:45.179Z,24.73
2023-07-09T07:07:45.220Z,24.73
2023-07-09T07:08:45.247Z,24.74
2023-07-09T07:09:45.301Z,24.76
2023-07-09T07:10:45.349Z,24.76
2023-07-09T07:11:45.375Z,24.77
2023-07-09T07:12:45.474Z,24.77
2023-07-09T07:13:45.559Z,24.78
2023-07-09T07:14:45.602Z,24.79
2023-07-09T07:15:45.658Z,24.80
2023-07-09T07:16:45.721Z,24.81
2023-07-09T07:17:45.781Z,24.82
2023-07-09T07:18:45.821Z,24.83
2023-07-09T07:19:45.865Z,24.83
2023-07-09T07:20:45.946Z,24.84
2023-07-09T07:21:45.980Z,24.85
2023-07-09T07:22:46.071Z,24.86
2023-07-09T07:23:46.085Z,24.87
2023-07-09T07:24:46.209Z,24.87
2023-07-09T07:25:46.231Z,24.87
2023-07-09T07:26:46.313Z,24.88
2023-07-09T07:27:46.405Z,24.90
2023-07-09T07:28:46.413Z,24.90
2023-07-09T07:29:46.460Z,24.91
2023-07-09T07:30:46.526Z,24.92
2023-07-09T07:31:46.632Z,24.93
2023-07-09T07:32:46.758Z,24.94
2023-07-09T07:33:46.680Z,24.95
2023-07-09T07:34:46.772Z,24.96
2023-07-09T07:36:12.722Z,24.97
2023-07-09T07:36:48.114Z,24.98
2023-07-09T07:37:46.796Z,24.99
2023-07-09T07:38:46.782Z,25.00
2023-07-09T07:39:46.786Z,25.01
2023-07-09T07:40:46.750Z,25.01
2023-07-09T07:41:46.784Z,25.03
2023-07-09T07:42:46.749Z,25.04
2023-07-09T07:43:46.764Z,25.05
2023-07-09T07:44:46.759Z,25.05
2023-07-09T07:45:46.790Z,25.07
2023-07-09T07:46:46.995Z,25.08
2023-07-09T07:47:46.964Z,25.09
2023-07-09T07:48:46.987Z,25.11
2023-07-09T07:49:47.075Z,25.12
2023-07-09T07:50:47.156Z,25.14
2023-07-09T07:51:47.161Z,25.14
2023-07-09T07:52:47.198Z,25.15
2023-07-09T07:53:47.236Z,25.16
2023-07-09T07:54:47.367Z,25.17
2023-07-09T07:55:47.344Z,25.19
2023-07-09T07:56:47.437Z,25.20
2023-07-09T07:57:47.509Z,25.21
2023-07-09T07:58:47.461Z,25.23
2023-07-09T07:59:47.535Z,25.24
2023-07-09T08:00:47.549Z,25.26
2023-07-09T08:01:47.614Z,25.27
2023-07-09T08:02:47.720Z,25.28
2023-07-09T08:03:47.707Z,25.28
2023-07-09T08:04:47.719Z,25.30
2023-07-09T08:05:47.748Z,25.31
2023-07-09T08:06:47.798Z,25.32
2023-07-09T08:07:47.838Z,25.33
2023-07-09T08:08:47.859Z,25.35
2023-07-09T08:09:47.879Z,25.35
2023-07-09T08:10:47.937Z,25.36
2023-07-09T08:11:47.977Z,25.38
2023-07-09T08:12:47.977Z,25.38
2023-07-09T08:13:48.064Z,25.40
2023-07-09T08:14:48.054Z,25.41
2023-07-09T08:15:48.162Z,25.41
2023-07-09T08:16:48.213Z,25.41
2023-07-09T08:17:48.304Z,25.42
2023-07-09T08:18:48.208Z,25.43
2023-07-09T08:19:48.231Z,25.43
2023-07-09T08:20:48.242Z,25.44
2023-07-09T08:21:48.248Z,25.45
2023-07-09T08:22:48.245Z,25.45
2023-07-09T08:23:48.276Z,25.46
2023-07-09T08:24:48.323Z,25.46
2023-07-09T08:25:48.339Z,25.46
2023-07-09T08:26:48.345Z,25.47
2023-07-09T08:27:48.375Z,25.48
2023-07-09T08:28:48.398Z,25.48
2023-07-09T08:29:48.442Z,25.49
2023-07-09T08:30:48.409Z,25.50
2023-07-09T08:31:48.497Z,25.50
2023-07-09T08:32:48.479Z,25.51
2023-07-09T08:33:48.487Z,25.52
2023-07-09T08:35:17.811Z,25.52
2023-07-09T08:35:49.562Z,25.52
2023-07-09T08:36:48.494Z,25.53
2023-07-09T08:37:48.502Z,25.53
2023-07-09T08:38:48.496Z,25.54
2023-07-09T08:39:48.475Z,25.53
2023-07-09T08:40:48.474Z,25.54
2023-07-09T08:41:48.453Z,25.55
2023-07-09T08:43:00.995Z,25.56
2023-07-09T08:43:49.406Z,25.56
2023-07-09T08:44:48.419Z,25.56
2023-07-09T08:45:48.493Z,25.57
2023-07-09T08:46:48.405Z,25.58
2023-07-09T08:47:48.449Z,25.58
2023-07-09T08:48:48.407Z,25.57
2023-07-09T08:49:48.450Z,25.58
2023-07-09T08:50:48.413Z,25.58
2023-07-09T08:51:48.385Z,25.59
2023-07-09T08:52:50.438Z,25.59
2023-07-09T08:53:48.365Z,25.60
2023-07-09T08:54:48.358Z,25.60
2023-07-09T08:55:48.333Z,25.60
2023-07-09T08:56:48.338Z,25.61
2023-07-09T08:57:48.334Z,25.61
2023-07-09T08:58:48.326Z,25.61
2023-07-09T08:59:48.336Z,25.62
2023-07-09T09:00:48.319Z,25.62
2023-07-09T09:01:48.442Z,25.63
2023-07-09T09:02:48.391Z,25.63
2023-07-09T09:03:48.441Z,25.63
2023-07-09T09:04:48.370Z,25.64
2023-07-09T09:05:48.416Z,25.64
2023-07-09T09:06:48.446Z,25.64
2023-07-09T09:07:48.454Z,25.65
2023-07-09T09:08:48.460Z,25.65
2023-07-09T09:09:48.469Z,25.66
2023-07-09T09:10:48.523Z,25.66
2023-07-09T09:11:48.534Z,25.66
2023-07-09T09:12:48.555Z,25.66
2023-07-09T09:13:48.664Z,25.67
2023-07-09T09:14:48.575Z,25.67
2023-07-09T09:15:50.864Z,25.67
2023-07-09T09:16:48.638Z,25.67
2023-07-09T09:17:48.715Z,25.68
2023-07-09T09:18:48.707Z,25.69
2023-07-09T09:19:48.691Z,25.69
2023-07-09T09:20:48.760Z,25.69
2023-07-09T09:21:48.756Z,25.70
2023-07-09T09:22:48.800Z,25.70
2023-07-09T09:23:48.815Z,25.70
2023-07-09T09:24:48.863Z,25.71
2023-07-09T09:25:53.129Z,25.71
2023-07-09T09:26:49.857Z,25.71
2023-07-09T09:27:49.297Z,25.72
2023-07-09T09:28:48.840Z,25.72
2023-07-09T09:29:48.823Z,25.72
2023-07-09T09:30:48.880Z,25.73
2023-07-09T09:31:48.876Z,25.74
2023-07-09T09:32:48.886Z,25.74
2023-07-09T09:33:48.791Z,25.75
2023-07-09T09:34:48.789Z,25.75
2023-07-09T09:35:48.742Z,25.76
2023-07-09T09:36:48.760Z,25.75
2023-07-09T09:37:48.743Z,25.76
2023-07-09T09:38:48.750Z,25.76
2023-07-09T09:39:58.723Z,25.77
2023-07-09T09:40:49.716Z,25.78
2023-07-09T09:41:48.722Z,25.78
2023-07-09T09:42:48.709Z,25.78
2023-07-09T09:43:48.738Z,25.79
2023-07-09T09:44:48.708Z,25.79
2023-07-09T09:45:48.707Z,25.80
2023-07-09T09:46:48.723Z,25.80
2023-07-09T09:47:48.735Z,25.80
2023-07-09T09:48:48.683Z,25.80
2023-07-09T09:49:48.671Z,25.81
2023-07-09T09:50:48.635Z,25.82
2023-07-09T09:51:48.646Z,25.81
2023-07-09T09:52:48.666Z,25.82
2023-07-09T09:53:48.640Z,25.82
2023-07-09T09:54:48.637Z,25.83
2023-07-09T09:55:48.612Z,25.84
2023-07-09T09:56:48.614Z,25.84
2023-07-09T09:57:48.626Z,25.84
2023-07-09T09:58:48.602Z,25.86
2023-07-09T09:59:48.598Z,25.87
2023-07-09T10:00:48.633Z,25.86
2023-07-09T10:01:48.640Z,25.86
2023-07-09T10:02:48.692Z,25.87
2023-07-09T10:03:50.474Z,25.88
2023-07-09T10:04:48.567Z,25.89
2023-07-09T10:05:48.538Z,25.89
2023-07-09T10:06:48.533Z,25.90
2023-07-09T10:07:48.546Z,25.90
2023-07-09T10:08:48.541Z,25.91
2023-07-09T10:09:48.524Z,25.90
2023-07-09T10:10:48.528Z,25.92
2023-07-09T10:11:48.531Z,25.92
2023-07-09T10:12:48.490Z,25.93
2023-07-09T10:13:48.511Z,25.93
2023-07-09T10:14:48.499Z,25.93
2023-07-09T10:15:48.498Z,25.94
2023-07-09T10:16:48.463Z,25.94
2023-07-09T10:17:48.491Z,25.95
2023-07-09T10:18:48.513Z,25.95
2023-07-09T10:19:48.464Z,25.96
2023-07-09T10:20:48.451Z,25.96
2023-07-09T10:21:48.456Z,25.97
2023-07-09T10:22:48.433Z,25.97
2023-07-09T10:23:48.421Z,25.97
2023-07-09T10:24:48.414Z,25.98
2023-07-09T10:25:48.399Z,25.98
2023-07-09T10:26:48.399Z,25.98
2023-07-09T10:27:48.381Z,25.99
2023-07-09T10:28:48.390Z,25.99
2023-07-09T10:29:48.389Z,25.99
2023-07-09T10:30:48.369Z,25.99
2023-07-09T10:31:48.345Z,25.99
2023-07-09T10:32:48.387Z,26.00
2023-07-09T10:33:48.356Z,26.00
2023-07-09T10:34:48.325Z,26.00
2023-07-09T10:35:48.333Z,26.00
2023-07-09T10:36:48.322Z,26.01
2023-07-09T10:37:48.348Z,26.01
2023-07-09T10:38:48.321Z,26.02
2023-07-09T10:39:48.334Z,26.02
2023-07-09T10:40:48.300Z,26.02
2023-07-09T10:41:48.304Z,26.01
2023-07-09T10:42:48.259Z,26.03
2023-07-09T10:43:48.291Z,26.03
2023-07-09T10:44:48.292Z,26.04
2023-07-09T10:45:48.291Z,26.04
2023-07-09T10:46:48.286Z,26.04
2023-07-09T10:47:48.315Z,26.04
2023-07-09T10:48:48.255Z,26.05
2023-07-09T10:49:48.257Z,26.05
2023-07-09T10:50:48.248Z,26.05
2023-07-09T10:51:48.243Z,26.04
2023-07-09T10:52:48.245Z,26.05
2023-07-09T10:53:48.235Z,26.05
2023-07-09T10:54:48.194Z,26.05
2023-07-09T10:55:48.186Z,26.06
2023-07-09T10:56:48.220Z,26.05
2023-07-09T10:57:48.187Z,26.06
2023-07-09T10:58:48.198Z,26.06
2023-07-09T10:59:48.170Z,26.06
2023-07-09T11:00:48.178Z,26.07
2023-07-09T11:01:48.254Z,26.07
2023-07-09T11:02:48.192Z,26.07
2023-07-09T11:03:48.246Z,26.07
2023-07-09T11:04:48.157Z,26.08
2023-07-09T11:05:48.123Z,26.08
2023-07-09T11:06:48.114Z,26.08
2023-07-09T11:07:48.097Z,26.08
2023-07-09T11:08:48.125Z,26.08
2023-07-09T11:09:48.141Z,26.08
2023-07-09T11:10:48.090Z,26.08
2023-07-09T11:11:48.103Z,26.09
2023-07-09T11:12:48.095Z,26.08
2023-07-09T11:13:52.551Z,26.08
2023-07-09T11:14:49.063Z,26.08
2023-07-09T11:15:49.336Z,26.08
2023-07-09T11:16:48.157Z,26.09
2023-07-09T11:17:48.119Z,26.10
2023-07-09T11:18:48.045Z,26.09
2023-07-09T11:19:48.039Z,26.10
2023-07-09T11:20:48.039Z,26.09
2023-07-09T11:21:48.046Z,26.10
2023-07-09T11:22:47.998Z,26.09
2023-07-09T11:23:47.979Z,26.09
2023-07-09T11:24:47.984Z,26.10
2023-07-09T11:25:48.018Z,26.10
2023-07-09T11:26:47.988Z,26.10
2023-07-09T11:27:47.985Z,26.11
2023-07-09T11:28:47.983Z,26.10
2023-07-09T11:29:47.942Z,26.11
2023-07-09T11:30:47.977Z,26.11
2023-07-09T11:31:48.012Z,26.10
2023-07-09T11:32:48.171Z,26.09
2023-07-09T11:33:48.332Z,26.10
2023-07-09T11:34:48.128Z,26.09
2023-07-09T11:35:47.949Z,26.10
2023-07-09T11:36:47.999Z,26.10
2023-07-09T11:37:48.006Z,26.10
2023-07-09T11:38:48.382Z,26.10
2023-07-09T11:39:48.056Z,26.11
2023-07-09T11:40:48.053Z,26.10
2023-07-09T11:41:48.054Z,26.10
2023-07-09T11:42:48.086Z,26.10
2023-07-09T11:43:48.075Z,26.10
2023-07-09T11:44:48.063Z,26.09
2023-07-09T11:45:48.068Z,26.10
2023-07-09T11:46:48.041Z,26.08
2023-07-09T11:47:48.068Z,26.09
2023-07-09T11:48:48.013Z,26.08
2023-07-09T11:49:48.030Z,26.09
2023-07-09T11:50:48.026Z,26.09
2023-07-09T11:51:48.008Z,26.08
2023-07-09T11:52:48.031Z,26.08
2023-07-09T11:53:48.013Z,26.08
2023-07-09T11:54:47.996Z,26.08
2023-07-09T11:55:48.017Z,26.08
2023-07-09T11:56:48.025Z,26.07
2023-07-09T11:57:48.012Z,26.07
2023-07-09T11:58:47.988Z,26.07
2023-07-09T11:59:48.003Z,26.07
2023-07-09T12:00:47.982Z,26.07
2023-07-09T12:01:48.148Z,26.06
2023-07-09T12:02:48.034Z,26.06
2023-07-09T12:03:47.982Z,26.07
2023-07-09T12:04:48.007Z,26.06
2023-07-09T12:05:47.998Z,26.06
2023-07-09T12:06:47.975Z,26.06
2023-07-09T12:07:47.998Z,26.06
2023-07-09T12:08:48.020Z,26.05
2023-07-09T12:09:47.989Z,26.06
2023-07-09T12:10:47.984Z,26.05
2023-07-09T12:11:48.032Z,26.04
2023-07-09T12:12:48.024Z,26.04
2023-07-09T12:13:48.018Z,26.05
2023-07-09T12:14:47.982Z,26.04
2023-07-09T12:15:48.019Z,26.04
2023-07-09T12:16:48.082Z,26.03
2023-07-09T12:17:48.031Z,26.04
2023-07-09T12:18:48.009Z,26.04
2023-07-09T12:19:48.001Z,26.04
2023-07-09T12:20:47.986Z,26.05
2023-07-09T12:21:47.986Z,26.05
2023-07-09T12:22:47.992Z,26.05
2023-07-09T12:23:48.000Z,26.04
2023-07-09T12:24:48.086Z,26.05
2023-07-09T12:25:47.978Z,26.04
2023-07-09T12:26:47.984Z,26.04
2023-07-09T12:27:47.984Z,26.04
2023-07-09T12:28:48.005Z,26.03
2023-07-09T12:29:48.002Z,26.04
2023-07-09T12:30:48.567Z,26.04
2023-07-09T12:31:48.003Z,26.04
2023-07-09T12:32:48.106Z,26.03
2023-07-09T12:33:48.027Z,26.03
2023-07-09T12:34:47.985Z,26.03
2023-07-09T12:35:48.034Z,26.03
2023-07-09T12:36:48.004Z,26.02
2023-07-09T12:37:47.990Z,26.02
2023-07-09T12:38:47.983Z,26.02
2023-07-09T12:39:47.961Z,26.02
2023-07-09T12:40:47.963Z,26.02
2023-07-09T12:41:48.008Z,26.01
2023-07-09T12:42:47.963Z,26.01
2023-07-09T12:43:47.982Z,26.01
2023-07-09T12:44:47.992Z,26.01
2023-07-09T12:45:48.045Z,26.01
2023-07-09T12:46:48.082Z,26.01
2023-07-09T12:47:48.023Z,26.01
2023-07-09T12:48:48.018Z,26.01
2023-07-09T12:49:47.991Z,26.00
2023-07-09T12:50:47.992Z,26.00
2023-07-09T12:51:47.997Z,26.00
2023-07-09T12:52:47.987Z,26.00